Time;durP1;ratioP1;P1;durP2;ratioP2;P2;SDS_P1;SDS_P2;PMS_P1;PMS_P2;Temp;Humidity;BMP_temperature;BMP_pressure;BME280_temperature;BME280_humidity;BME280_pressure;Samples;Min_cycle;Max_cycle;Signal;HPM_P1;HPM_P2
2024/01/30 00:01:36;;;;;;;2.77;2.30;;;;;;;;;;4997857;28;20308;-75
2024/01/30 00:04:02;;;;;;;3.67;2.60;;;;;;;;;;4993861;28;20195;-74
2024/01/30 00:06:27;;;;;;;3.07;2.03;;;;;;;;;;4993297;28;20193;-74
2024/01/30 00:08:53;;;;;;;3.27;2.27;;;;;;;;;;4998815;28;20205;-75
2024/01/30 00:11:18;;;;;;;2.23;2.03;;;;;;;;;;5011134;28;20269;-74
2024/01/30 00:13:43;;;;;;;2.23;2.03;;;;;;;;;;4997345;28;20205;-75
2024/01/30 00:16:19;;;;;;;2.77;2.20;;;;;;;;;;4993268;28;20236;-74
2024/01/30 00:18:45;;;;;;;2.80;1.63;;;;;;;;;;5009832;28;20190;-75
2024/01/30 00:21:10;;;;;;;4.73;2.43;;;;;;;;;;5010252;28;20187;-75
2024/01/30 00:23:36;;;;;;;2.60;2.00;;;;;;;;;;4993548;28;20189;-75
2024/01/30 00:26:01;;;;;;;3.17;2.37;;;;;;;;;;4997869;28;20206;-75
2024/01/30 00:28:26;;;;;;;2.67;1.57;;;;;;;;;;4993507;28;20190;-75
2024/01/30 00:30:51;;;;;;;2.77;1.70;;;;;;;;;;4995007;28;20213;-75
2024/01/30 00:33:16;;;;;;;2.27;2.03;;;;;;;;;;4995018;28;20182;-74
2024/01/30 00:35:42;;;;;;;4.07;1.93;;;;;;;;;;5010401;28;20181;-74
2024/01/30 00:38:07;;;;;;;2.50;2.10;;;;;;;;;;4993788;28;20175;-75
2024/01/30 00:40:33;;;;;;;2.00;1.70;;;;;;;;;;4992350;28;20273;-75
2024/01/30 00:42:58;;;;;;;2.50;1.93;;;;;;;;;;5001813;28;20187;-75
2024/01/30 00:45:23;;;;;;;2.43;1.80;;;;;;;;;;5009870;28;20190;-75
2024/01/30 00:47:48;;;;;;;2.97;1.70;;;;;;;;;;4993310;28;20186;-74
2024/01/30 00:50:14;;;;;;;3.50;1.93;;;;;;;;;;4984002;28;20196;-75
2024/01/30 00:52:41;;;;;;;1.93;1.60;;;;;;;;;;4993525;28;20183;-76
2024/01/30 00:55:06;;;;;;;2.30;2.10;;;;;;;;;;5009613;28;20202;-75
2024/01/30 00:57:31;;;;;;;4.40;2.27;;;;;;;;;;4993534;28;20242;-75
2024/01/30 00:59:57;;;;;;;2.00;1.80;;;;;;;;;;5005746;28;20181;-75
2024/01/30 01:02:22;;;;;;;2.27;1.80;;;;;;;;;;4997426;28;20193;-75
2024/01/30 01:04:47;;;;;;;4.13;2.23;;;;;;;;;;4995115;28;20186;-75
2024/01/30 01:07:12;;;;;;;3.30;1.90;;;;;;;;;;5010089;28;20187;-74
2024/01/30 01:09:38;;;;;;;2.23;1.70;;;;;;;;;;4993869;28;20190;-75
2024/01/30 01:12:03;;;;;;;1.93;1.60;;;;;;;;;;5008286;28;20183;-75
2024/01/30 01:14:28;;;;;;;2.23;1.93;;;;;;;;;;4993443;28;20198;-75
2024/01/30 01:16:54;;;;;;;4.03;1.70;;;;;;;;;;4989429;28;20219;-75
2024/01/30 01:19:19;;;;;;;1.80;1.40;;;;;;;;;;4990788;28;20233;-75
2024/01/30 01:21:44;;;;;;;1.93;1.73;;;;;;;;;;4999272;28;20197;-74
2024/01/30 01:24:09;;;;;;;2.13;1.70;;;;;;;;;;5010860;28;20176;-75
2024/01/30 01:26:34;;;;;;;1.90;1.80;;;;;;;;;;5013219;28;20270;-75
2024/01/30 01:29:00;;;;;;;2.27;1.77;;;;;;;;;;4994371;28;20299;-75
2024/01/30 01:31:29;;;;;;;3.23;1.80;;;;;;;;;;4992977;28;20221;-75
2024/01/30 01:33:54;;;;;;;2.87;1.93;;;;;;;;;;4996226;28;20198;-75
2024/01/30 01:36:19;;;;;;;4.87;2.00;;;;;;;;;;4997357;28;20183;-75
2024/01/30 01:38:45;;;;;;;3.37;1.47;;;;;;;;;;4996984;28;20183;-75
2024/01/30 01:41:10;;;;;;;2.33;2.00;;;;;;;;;;4994618;28;20182;-75
2024/01/30 01:43:35;;;;;;;2.20;2.00;;;;;;;;;;4996462;28;20624;-74
2024/01/30 01:46:01;;;;;;;2.10;1.90;;;;;;;;;;4996136;28;20179;-75
2024/01/30 01:48:26;;;;;;;1.50;1.40;;;;;;;;;;5010783;28;20183;-76
2024/01/30 01:50:51;;;;;;;3.53;1.80;;;;;;;;;;4996051;28;20227;-75
2024/01/30 01:53:17;;;;;;;2.03;1.83;;;;;;;;;;5011633;28;20268;-75
2024/01/30 01:55:42;;;;;;;2.23;2.00;;;;;;;;;;4992717;28;20176;-75
2024/01/30 01:58:08;;;;;;;2.00;1.80;;;;;;;;;;4990584;28;20179;-74
2024/01/30 02:00:34;;;;;;;3.10;1.73;;;;;;;;;;5007602;28;20184;-74
2024/01/30 02:03:00;;;;;;;2.63;1.87;;;;;;;;;;5011206;28;20245;-75
2024/01/30 02:05:26;;;;;;;1.80;1.70;;;;;;;;;;5012843;28;20191;-75
2024/01/30 02:07:51;;;;;;;4.20;1.63;;;;;;;;;;5013408;28;20187;-75
2024/01/30 02:10:17;;;;;;;1.73;1.63;;;;;;;;;;4994199;28;20214;-75
2024/01/30 02:12:42;;;;;;;1.90;1.80;;;;;;;;;;4994964;28;20187;-75
2024/01/30 02:15:08;;;;;;;4.20;1.80;;;;;;;;;;5011607;28;20198;-75
2024/01/30 02:17:33;;;;;;;1.73;1.63;;;;;;;;;;4994917;28;20219;-75
2024/01/30 02:19:58;;;;;;;2.23;1.73;;;;;;;;;;5011703;28;20190;-75
2024/01/30 02:22:24;;;;;;;1.70;1.60;;;;;;;;;;5001776;28;20236;-75
2024/01/30 02:24:49;;;;;;;2.33;1.93;;;;;;;;;;4991910;28;20209;-75
2024/01/30 02:27:15;;;;;;;2.13;1.70;;;;;;;;;;4994325;28;20226;-75
2024/01/30 02:29:40;;;;;;;1.73;1.60;;;;;;;;;;4993779;28;20229;-75
2024/01/30 02:32:06;;;;;;;2.30;1.50;;;;;;;;;;4996187;28;20196;-75
2024/01/30 02:34:31;;;;;;;2.80;2.00;;;;;;;;;;5003031;28;20169;-75
2024/01/30 02:36:56;;;;;;;2.70;1.90;;;;;;;;;;4994771;28;20466;-75
2024/01/30 02:39:21;;;;;;;2.50;1.70;;;;;;;;;;4987669;28;20183;-75
2024/01/30 02:41:47;;;;;;;1.90;1.70;;;;;;;;;;4992011;28;20250;-75
2024/01/30 02:44:12;;;;;;;2.53;1.80;;;;;;;;;;4998828;28;20190;-75
2024/01/30 02:46:37;;;;;;;3.00;2.30;;;;;;;;;;4994689;28;20182;-75
2024/01/30 02:49:02;;;;;;;3.00;2.30;;;;;;;;;;4994938;28;20185;-75
2024/01/30 02:51:28;;;;;;;3.27;2.07;;;;;;;;;;4995549;28;20196;-74
2024/01/30 02:53:53;;;;;;;3.60;1.80;;;;;;;;;;5001804;28;20186;-74
2024/01/30 02:56:18;;;;;;;2.17;1.97;;;;;;;;;;5010638;28;20175;-75
2024/01/30 02:58:43;;;;;;;1.60;1.50;;;;;;;;;;5010072;28;20212;-75
2024/01/30 03:01:08;;;;;;;1.70;1.60;;;;;;;;;;4996956;28;20194;-74
2024/01/30 03:03:35;;;;;;;1.80;1.70;;;;;;;;;;4992853;28;20196;-75
2024/01/30 03:06:01;;;;;;;1.90;1.57;;;;;;;;;;5011343;28;20241;-74
2024/01/30 03:08:26;;;;;;;2.30;2.00;;;;;;;;;;5011891;28;20179;-77
2024/01/30 03:10:52;;;;;;;3.70;2.00;;;;;;;;;;5011562;28;20259;-74
2024/01/30 03:13:17;;;;;;;1.87;1.70;;;;;;;;;;4990607;28;20210;-75
2024/01/30 03:15:42;;;;;;;3.33;2.30;;;;;;;;;;5003337;28;20222;-76
2024/01/30 03:18:07;;;;;;;2.37;1.90;;;;;;;;;;5010323;28;20184;-76
2024/01/30 03:20:33;;;;;;;2.70;1.97;;;;;;;;;;5005662;28;20232;-76
2024/01/30 03:22:59;;;;;;;1.93;1.73;;;;;;;;;;4995363;28;20190;-74
2024/01/30 03:25:25;;;;;;;3.60;2.83;;;;;;;;;;4992754;28;20190;-77
2024/01/30 03:27:51;;;;;;;2.10;1.90;;;;;;;;;;5010900;28;20218;-76
2024/01/30 03:30:16;;;;;;;2.87;2.13;;;;;;;;;;5010247;28;20203;-76
2024/01/30 03:32:43;;;;;;;3.67;1.90;;;;;;;;;;4996901;28;20208;-76
2024/01/30 03:35:09;;;;;;;3.73;1.63;;;;;;;;;;4996141;28;20242;-76
2024/01/30 03:37:34;;;;;;;3.07;2.20;;;;;;;;;;4994725;28;20254;-76
2024/01/30 03:39:59;;;;;;;2.73;2.00;;;;;;;;;;4996155;28;20192;-76
2024/01/30 03:42:25;;;;;;;1.80;1.70;;;;;;;;;;5010471;28;20178;-76
2024/01/30 03:44:53;;;;;;;2.40;1.73;;;;;;;;;;4993112;28;20189;-76
2024/01/30 03:47:18;;;;;;;1.97;1.77;;;;;;;;;;4998204;28;20193;-76
2024/01/30 03:49:43;;;;;;;4.83;2.00;;;;;;;;;;4988403;28;20238;-76
2024/01/30 03:52:09;;;;;;;1.93;1.70;;;;;;;;;;4991987;28;20183;-76
2024/01/30 03:54:34;;;;;;;2.17;1.93;;;;;;;;;;4996574;28;20230;-76
2024/01/30 03:56:59;;;;;;;2.40;1.87;;;;;;;;;;5009789;28;20222;-77
2024/01/30 03:59:25;;;;;;;2.10;1.90;;;;;;;;;;4990617;28;20230;-76
2024/01/30 04:01:51;;;;;;;1.83;1.70;;;;;;;;;;5007619;28;20265;-76
2024/01/30 04:04:16;;;;;;;2.20;2.00;;;;;;;;;;4997128;28;20522;-75
2024/01/30 04:06:42;;;;;;;2.20;2.00;;;;;;;;;;4992390;28;20279;-76
2024/01/30 04:09:07;;;;;;;3.40;2.50;;;;;;;;;;5010104;28;20236;-74
2024/01/30 04:11:32;;;;;;;2.50;2.17;;;;;;;;;;4996292;28;20255;-73
2024/01/30 04:13:58;;;;;;;4.63;1.93;;;;;;;;;;4988774;28;20216;-77
2024/01/30 04:16:23;;;;;;;2.40;2.20;;;;;;;;;;4998791;28;20224;-75
2024/01/30 04:18:48;;;;;;;3.10;2.33;;;;;;;;;;5010022;28;20285;-76
2024/01/30 04:21:13;;;;;;;22.07;3.67;;;;;;;;;;4995942;28;20233;-76
2024/01/30 04:23:39;;;;;;;2.27;1.80;;;;;;;;;;4994751;28;20231;-76
2024/01/30 04:26:04;;;;;;;3.33;3.10;;;;;;;;;;5009626;28;20181;-74
2024/01/30 04:28:30;;;;;;;2.10;1.80;;;;;;;;;;4992368;28;20180;-76
2024/01/30 04:30:55;;;;;;;1.80;1.60;;;;;;;;;;5010535;28;20275;-74
2024/01/30 04:33:20;;;;;;;3.13;2.07;;;;;;;;;;5010250;28;20266;-74
2024/01/30 04:35:45;;;;;;;2.07;1.87;;;;;;;;;;4993534;28;20186;-76
2024/01/30 04:38:10;;;;;;;2.07;1.67;;;;;;;;;;5010113;28;20225;-76
2024/01/30 04:40:36;;;;;;;4.97;2.37;;;;;;;;;;4992911;28;20180;-76
2024/01/30 04:43:01;;;;;;;3.40;1.90;;;;;;;;;;4990854;28;20185;-76
2024/01/30 04:45:26;;;;;;;2.60;1.77;;;;;;;;;;4992748;28;20221;-74
2024/01/30 04:47:51;;;;;;;2.10;1.80;;;;;;;;;;4994249;28;20237;-73
2024/01/30 04:50:17;;;;;;;7.20;2.60;;;;;;;;;;4995939;28;20275;-74
2024/01/30 04:52:42;;;;;;;3.50;1.63;;;;;;;;;;4998323;28;20176;-76
2024/01/30 04:55:07;;;;;;;2.73;1.83;;;;;;;;;;5001172;28;20479;-76
2024/01/30 04:57:33;;;;;;;1.80;1.67;;;;;;;;;;4998090;28;20227;-74
2024/01/30 04:59:59;;;;;;;2.73;1.70;;;;;;;;;;5011902;28;20189;-77
2024/01/30 05:02:24;;;;;;;1.87;1.63;;;;;;;;;;4998986;28;20174;-76
2024/01/30 05:04:49;;;;;;;3.43;2.10;;;;;;;;;;5010190;28;20253;-76
2024/01/30 05:07:14;;;;;;;2.10;1.90;;;;;;;;;;5007672;28;20190;-76
2024/01/30 05:09:39;;;;;;;4.27;1.90;;;;;;;;;;4994084;28;20236;-76
2024/01/30 05:12:05;;;;;;;2.70;1.80;;;;;;;;;;4996426;28;20212;-74
2024/01/30 05:14:30;;;;;;;2.63;2.03;;;;;;;;;;5012341;28;20237;-77
2024/01/30 05:16:55;;;;;;;4.40;1.90;;;;;;;;;;5013499;28;20244;-76
2024/01/30 05:19:23;;;;;;;2.20;1.80;;;;;;;;;;4995665;28;20178;-74
2024/01/30 05:21:48;;;;;;;2.20;1.90;;;;;;;;;;5013147;28;20179;-76
2024/01/30 05:24:13;;;;;;;3.10;2.07;;;;;;;;;;5011418;28;20197;-74
2024/01/30 05:26:38;;;;;;;4.10;2.40;;;;;;;;;;5003364;28;20195;-74
2024/01/30 05:29:04;;;;;;;4.23;1.90;;;;;;;;;;5008564;28;20188;-74
2024/01/30 05:31:30;;;;;;;2.43;1.70;;;;;;;;;;5011197;28;20249;-76
2024/01/30 05:33:55;;;;;;;2.90;2.03;;;;;;;;;;5012754;28;20240;-76
2024/01/30 05:36:21;;;;;;;2.00;1.90;;;;;;;;;;4996212;28;20172;-74
2024/01/30 05:38:46;;;;;;;3.20;1.90;;;;;;;;;;4992071;28;20236;-76
2024/01/30 05:41:12;;;;;;;1.60;1.50;;;;;;;;;;4996359;28;20254;-75
2024/01/30 05:43:37;;;;;;;2.00;1.73;;;;;;;;;;4994775;28;20182;-75
2024/01/30 05:46:02;;;;;;;4.60;2.13;;;;;;;;;;4996138;28;20178;-74
2024/01/30 05:48:27;;;;;;;3.90;1.87;;;;;;;;;;4995631;28;20183;-74
2024/01/30 05:50:52;;;;;;;2.63;2.00;;;;;;;;;;4995121;28;20228;-76
2024/01/30 05:53:18;;;;;;;3.50;2.40;;;;;;;;;;4995064;28;20188;-76
2024/01/30 05:55:44;;;;;;;2.77;2.00;;;;;;;;;;4995534;28;20196;-76
2024/01/30 05:58:09;;;;;;;2.10;1.80;;;;;;;;;;4998187;28;20241;-77
2024/01/30 06:00:34;;;;;;;2.77;2.07;;;;;;;;;;4996242;28;20182;-76
2024/01/30 06:02:59;;;;;;;4.13;1.97;;;;;;;;;;4994178;28;20198;-76
2024/01/30 06:05:24;;;;;;;1.90;1.80;;;;;;;;;;5012499;28;20203;-76
2024/01/30 06:07:50;;;;;;;1.90;1.80;;;;;;;;;;4995552;28;20188;-76
2024/01/30 06:10:15;;;;;;;2.23;1.97;;;;;;;;;;5009909;28;20233;-74
2024/01/30 06:12:40;;;;;;;2.30;2.10;;;;;;;;;;5002084;28;20274;-76
2024/01/30 06:15:06;;;;;;;3.17;2.30;;;;;;;;;;4999006;28;20193;-76
2024/01/30 06:17:31;;;;;;;2.23;2.03;;;;;;;;;;4996767;28;20215;-76
2024/01/30 06:19:56;;;;;;;3.70;2.27;;;;;;;;;;5008752;28;20186;-76
2024/01/30 06:22:22;;;;;;;2.73;2.53;;;;;;;;;;4994302;28;20246;-76
2024/01/30 06:24:50;;;;;;;2.97;2.60;;;;;;;;;;4996352;28;20175;-76
2024/01/30 06:27:15;;;;;;;2.63;2.20;;;;;;;;;;5010537;28;20181;-77
2024/01/30 06:29:40;;;;;;;2.50;2.30;;;;;;;;;;5010670;28;20228;-77
2024/01/30 06:32:06;;;;;;;2.10;1.90;;;;;;;;;;5011800;28;20201;-77
2024/01/30 06:34:31;;;;;;;2.03;1.70;;;;;;;;;;4995359;28;20178;-77
2024/01/30 06:36:56;;;;;;;2.23;1.90;;;;;;;;;;4994228;28;20183;-77
2024/01/30 06:39:21;;;;;;;1.73;1.63;;;;;;;;;;5011301;28;20179;-77
2024/01/30 06:41:47;;;;;;;6.43;2.50;;;;;;;;;;4997810;28;20185;-77
2024/01/30 06:44:12;;;;;;;7.93;2.70;;;;;;;;;;5011424;28;20186;-76
2024/01/30 06:46:38;;;;;;;2.27;2.07;;;;;;;;;;4993234;28;20182;-77
2024/01/30 06:49:03;;;;;;;4.87;2.03;;;;;;;;;;4992120;28;20172;-77
2024/01/30 06:51:28;;;;;;;2.30;1.83;;;;;;;;;;4992437;28;20194;-77
2024/01/30 06:53:53;;;;;;;1.70;1.60;;;;;;;;;;5007569;28;20196;-77
2024/01/30 06:56:20;;;;;;;2.70;2.37;;;;;;;;;;4995325;28;20183;-77
2024/01/30 06:58:47;;;;;;;4.20;2.10;;;;;;;;;;4994394;28;20266;-77
2024/01/30 07:01:12;;;;;;;5.00;2.13;;;;;;;;;;4994635;28;20199;-77
2024/01/30 07:03:37;;;;;;;2.07;1.87;;;;;;;;;;4991219;28;20180;-77
2024/01/30 07:06:02;;;;;;;48.20;7.00;;;;;;;;;;4991341;28;20223;-77
2024/01/30 07:08:27;;;;;;;3.03;2.60;;;;;;;;;;5011268;28;20205;-78
2024/01/30 07:10:55;;;;;;;2.67;1.87;;;;;;;;;;4994296;28;20199;-77
2024/01/30 07:13:20;;;;;;;2.10;1.90;;;;;;;;;;4991659;28;20269;-77
2024/01/30 07:15:46;;;;;;;1.80;1.67;;;;;;;;;;4994178;28;20313;-77
2024/01/30 07:18:13;;;;;;;2.03;1.70;;;;;;;;;;4994096;28;20186;-77
2024/01/30 07:20:42;;;;;;;2.30;1.90;;;;;;;;;;4994158;28;20527;-77
2024/01/30 07:23:07;;;;;;;3.10;1.70;;;;;;;;;;4999089;28;20192;-77
2024/01/30 07:25:36;;;;;;;2.30;2.00;;;;;;;;;;5011573;28;20187;-77
2024/01/30 07:28:01;;;;;;;2.27;1.80;;;;;;;;;;4989563;28;20215;-77
2024/01/30 07:30:26;;;;;;;3.80;1.90;;;;;;;;;;4993562;28;20205;-77
2024/01/30 07:32:52;;;;;;;2.47;2.10;;;;;;;;;;4995860;28;20186;-77
2024/01/30 07:35:17;;;;;;;1.97;1.80;;;;;;;;;;5009701;28;20565;-77
2024/01/30 07:37:42;;;;;;;2.87;1.90;;;;;;;;;;4996199;28;20190;-77
2024/01/30 07:40:08;;;;;;;3.10;2.47;;;;;;;;;;4994912;28;20222;-77
2024/01/30 07:42:33;;;;;;;8.00;2.17;;;;;;;;;;5006801;28;20180;-74
2024/01/30 07:44:58;;;;;;;2.83;1.90;;;;;;;;;;5008703;28;20219;-77
2024/01/30 07:47:24;;;;;;;2.10;1.90;;;;;;;;;;4994342;28;20186;-77
2024/01/30 07:49:49;;;;;;;2.30;1.90;;;;;;;;;;4993157;28;20218;-77
2024/01/30 07:52:14;;;;;;;2.37;2.10;;;;;;;;;;4993769;28;20178;-77
2024/01/30 07:54:39;;;;;;;2.57;2.37;;;;;;;;;;4994911;28;20177;-77
2024/01/30 07:57:05;;;;;;;3.13;2.10;;;;;;;;;;4993592;28;20238;-77
2024/01/30 07:59:30;;;;;;;3.33;3.03;;;;;;;;;;4992544;28;20179;-77
2024/01/30 08:01:55;;;;;;;6.63;3.10;;;;;;;;;;4994120;28;20184;-77
2024/01/30 08:04:21;;;;;;;12.30;2.93;;;;;;;;;;5007913;28;20183;-77
2024/01/30 08:06:46;;;;;;;8.63;5.87;;;;;;;;;;5004487;28;20179;-77
2024/01/30 08:09:11;;;;;;;6.17;5.57;;;;;;;;;;4986574;28;20316;-77
2024/01/30 08:11:36;;;;;;;5.37;3.07;;;;;;;;;;5002985;28;20204;-77
2024/01/30 08:14:02;;;;;;;3.10;2.60;;;;;;;;;;4992776;28;20175;-77
2024/01/30 08:16:27;;;;;;;4.00;3.10;;;;;;;;;;4990521;28;20227;-77
2024/01/30 08:18:55;;;;;;;3.07;2.33;;;;;;;;;;4985826;28;20178;-77
2024/01/30 08:21:20;;;;;;;2.43;2.00;;;;;;;;;;4992049;28;20180;-77
2024/01/30 08:23:46;;;;;;;2.37;2.10;;;;;;;;;;5009487;28;20289;-77
2024/01/30 08:26:11;;;;;;;4.57;2.60;;;;;;;;;;4991259;28;20247;-77
2024/01/30 08:28:36;;;;;;;3.03;2.70;;;;;;;;;;4991445;28;20188;-77
2024/01/30 08:31:01;;;;;;;4.67;2.23;;;;;;;;;;5010442;28;20223;-74
2024/01/30 08:33:26;;;;;;;6.40;2.70;;;;;;;;;;4995038;28;20172;-77
2024/01/30 08:35:52;;;;;;;1.83;1.73;;;;;;;;;;5006531;28;20338;-75
2024/01/30 08:38:17;;;;;;;3.13;2.37;;;;;;;;;;4987320;28;20183;-75
2024/01/30 08:40:42;;;;;;;2.47;2.27;;;;;;;;;;4992028;28;20176;-77
2024/01/30 08:43:10;;;;;;;2.10;1.90;;;;;;;;;;4996818;28;20269;-75
2024/01/30 08:45:35;;;;;;;2.30;2.10;;;;;;;;;;4991314;28;20179;-75
2024/01/30 08:48:00;;;;;;;4.37;2.33;;;;;;;;;;4996291;28;20179;-74
2024/01/30 08:50:25;;;;;;;5.23;2.50;;;;;;;;;;4990369;28;20396;-75
2024/01/30 08:52:50;;;;;;;3.23;1.87;;;;;;;;;;5002281;28;20223;-75
2024/01/30 08:55:16;;;;;;;4.20;2.30;;;;;;;;;;4996045;28;20208;-74
2024/01/30 08:57:41;;;;;;;2.97;2.20;;;;;;;;;;4994357;28;20266;-74
2024/01/30 09:00:09;;;;;;;2.40;2.20;;;;;;;;;;4993156;28;20176;-75
2024/01/30 09:02:34;;;;;;;3.53;2.40;;;;;;;;;;5011522;28;20224;-80
2024/01/30 09:04:59;;;;;;;2.50;2.30;;;;;;;;;;4994773;28;20222;-73
2024/01/30 09:07:24;;;;;;;2.80;2.27;;;;;;;;;;5009002;28;20186;-76
2024/01/30 09:09:50;;;;;;;2.67;2.40;;;;;;;;;;5009679;28;20195;-75
2024/01/30 09:12:15;;;;;;;3.87;2.50;;;;;;;;;;4995538;28;20199;-76
2024/01/30 09:14:41;;;;;;;5.23;2.67;;;;;;;;;;5008695;28;20206;-76
2024/01/30 09:17:06;;;;;;;4.07;3.20;;;;;;;;;;5008994;28;20212;-75
2024/01/30 09:19:31;;;;;;;4.70;2.80;;;;;;;;;;4989615;28;20229;-76
2024/01/30 09:21:57;;;;;;;6.53;2.70;;;;;;;;;;4992678;28;20172;-75
2024/01/30 09:24:22;;;;;;;8.00;4.73;;;;;;;;;;5004829;28;20314;-76
2024/01/30 09:26:47;;;;;;;16.27;9.40;;;;;;;;;;4994317;28;20181;-76
2024/01/30 09:29:12;;;;;;;12.23;7.47;;;;;;;;;;5008202;28;20180;-75
2024/01/30 09:31:38;;;;;;;9.47;4.00;;;;;;;;;;5010391;28;20199;-75
2024/01/30 09:34:03;;;;;;;5.17;3.27;;;;;;;;;;5009200;28;20175;-75
2024/01/30 09:36:28;;;;;;;5.13;3.77;;;;;;;;;;5012411;28;20171;-75
2024/01/30 09:38:53;;;;;;;5.73;2.87;;;;;;;;;;5013299;28;20184;-75
2024/01/30 09:41:19;;;;;;;2.67;2.30;;;;;;;;;;5012963;28;20234;-75
2024/01/30 09:43:48;;;;;;;3.77;2.47;;;;;;;;;;5011930;28;20175;-76
2024/01/30 09:46:14;;;;;;;4.27;2.77;;;;;;;;;;4996570;28;20429;-75
2024/01/30 09:48:41;;;;;;;4.23;2.20;;;;;;;;;;4997999;28;20191;-76
2024/01/30 09:51:07;;;;;;;2.27;2.07;;;;;;;;;;5002824;28;20288;-75
2024/01/30 09:53:32;;;;;;;5.47;2.77;;;;;;;;;;4998055;28;20262;-76
2024/01/30 09:55:58;;;;;;;2.10;1.90;;;;;;;;;;5005802;28;20175;-76
2024/01/30 09:58:23;;;;;;;5.47;3.33;;;;;;;;;;5007871;28;20172;-75
2024/01/30 10:00:48;;;;;;;12.50;5.37;;;;;;;;;;5012775;28;20182;-76
2024/01/30 10:03:14;;;;;;;4.30;3.00;;;;;;;;;;4994830;28;20188;-75
2024/01/30 10:05:40;;;;;;;3.07;2.30;;;;;;;;;;4995921;28;20271;-76
2024/01/30 10:08:06;;;;;;;5.10;2.67;;;;;;;;;;5002021;28;20263;-75
2024/01/30 10:10:31;;;;;;;5.07;3.07;;;;;;;;;;5006203;28;20195;-76
2024/01/30 10:12:56;;;;;;;2.70;2.50;;;;;;;;;;5012880;28;20195;-74
2024/01/30 10:15:21;;;;;;;3.77;2.93;;;;;;;;;;5007460;28;20200;-73
2024/01/30 10:17:47;;;;;;;2.90;2.50;;;;;;;;;;5012983;28;20206;-73
2024/01/30 10:20:12;;;;;;;4.23;2.77;;;;;;;;;;4993970;28;20176;-73
2024/01/30 10:22:37;;;;;;;3.37;2.00;;;;;;;;;;4999840;28;20168;-74
2024/01/30 10:25:03;;;;;;;4.03;2.10;;;;;;;;;;5011370;28;20173;-73
2024/01/30 10:27:29;;;;;;;4.73;4.33;;;;;;;;;;5011452;28;20322;-73
2024/01/30 10:29:55;;;;;;;4.87;2.17;;;;;;;;;;4998604;28;20469;-73
2024/01/30 10:32:21;;;;;;;6.30;3.57;;;;;;;;;;4995591;28;20183;-73
2024/01/30 10:34:46;;;;;;;3.40;3.10;;;;;;;;;;4994825;28;20394;-74
2024/01/30 10:37:17;;;;;;;4.03;2.57;;;;;;;;;;5012508;28;20166;-73
2024/01/30 10:39:43;;;;;;;3.70;2.40;;;;;;;;;;4993572;28;20204;-73
2024/01/30 10:42:13;;;;;;;2.70;2.37;;;;;;;;;;4996115;28;20252;-74
2024/01/30 10:44:55;;;;;;;3.03;2.37;;;;;;;;;;5003804;28;20182;-74
2024/01/30 10:47:24;;;;;;;3.77;3.43;;;;;;;;;;5002049;28;20582;-74
2024/01/30 10:49:51;;;;;;;1.90;1.70;;;;;;;;;;5011039;28;20187;-74
2024/01/30 10:52:17;;;;;;;4.33;3.23;;;;;;;;;;5010506;28;20208;-73
2024/01/30 10:54:44;;;;;;;3.83;2.13;;;;;;;;;;4999921;28;20174;-73
2024/01/30 10:57:10;;;;;;;2.23;2.03;;;;;;;;;;5012082;28;20196;-76
2024/01/30 10:59:35;;;;;;;4.53;2.40;;;;;;;;;;4988806;28;20187;-75
2024/01/30 11:02:01;;;;;;;8.33;3.33;;;;;;;;;;5012618;28;20177;-76
2024/01/30 11:04:26;;;;;;;3.47;2.20;;;;;;;;;;5011445;28;20176;-76
2024/01/30 11:06:51;;;;;;;1.90;1.80;;;;;;;;;;5008061;28;20237;-76
2024/01/30 11:09:17;;;;;;;2.03;1.83;;;;;;;;;;5007670;28;20264;-73
2024/01/30 11:11:49;;;;;;;3.27;2.20;;;;;;;;;;5010357;28;20221;-76
2024/01/30 11:14:14;;;;;;;2.23;2.03;;;;;;;;;;4992941;28;20181;-75
2024/01/30 11:16:40;;;;;;;2.00;1.80;;;;;;;;;;4991838;28;20233;-76
2024/01/30 11:19:10;;;;;;;2.43;1.73;;;;;;;;;;5008577;28;20218;-76
2024/01/30 11:21:41;;;;;;;5.73;2.17;;;;;;;;;;5005334;28;20185;-76
2024/01/30 11:24:07;;;;;;;2.13;1.90;;;;;;;;;;5010623;28;20190;-76
2024/01/30 11:26:32;;;;;;;3.73;2.00;;;;;;;;;;5008100;28;20196;-76
2024/01/30 11:28:58;;;;;;;7.17;2.37;;;;;;;;;;4991527;28;20174;-76
2024/01/30 11:31:23;;;;;;;3.33;2.20;;;;;;;;;;4994579;28;20256;-76
2024/01/30 11:33:52;;;;;;;3.97;2.37;;;;;;;;;;5010239;28;20165;-76
2024/01/30 11:36:18;;;;;;;3.83;2.20;;;;;;;;;;5005999;28;20179;-76
2024/01/30 11:38:45;;;;;;;2.30;1.80;;;;;;;;;;4998746;28;20175;-76
2024/01/30 11:41:10;;;;;;;3.20;1.90;;;;;;;;;;5008831;28;20190;-76
2024/01/30 11:43:35;;;;;;;3.00;2.20;;;;;;;;;;4992453;28;20182;-75
2024/01/30 11:46:01;;;;;;;3.07;1.90;;;;;;;;;;5010290;28;20177;-76
2024/01/30 11:48:26;;;;;;;18.17;3.60;;;;;;;;;;4994088;28;20226;-76
2024/01/30 11:50:52;;;;;;;5.03;2.30;;;;;;;;;;5009985;28;20190;-73
2024/01/30 11:53:17;;;;;;;2.80;2.10;;;;;;;;;;4993695;28;20233;-74
2024/01/30 11:55:49;;;;;;;2.07;1.90;;;;;;;;;;4994220;28;20178;-73
2024/01/30 11:58:14;;;;;;;4.27;1.93;;;;;;;;;;5006747;28;20249;-73
2024/01/30 12:00:39;;;;;;;3.60;2.30;;;;;;;;;;4988368;28;20271;-73
2024/01/30 12:03:06;;;;;;;2.03;1.83;;;;;;;;;;4995357;28;20184;-74
2024/01/30 12:05:32;;;;;;;12.47;3.40;;;;;;;;;;5001695;28;20566;-74
2024/01/30 12:07:58;;;;;;;3.20;1.70;;;;;;;;;;5011257;28;20253;-74
2024/01/30 12:10:24;;;;;;;2.83;1.90;;;;;;;;;;5004541;28;20201;-74
2024/01/30 12:12:50;;;;;;;2.97;2.03;;;;;;;;;;4993443;28;20190;-74
2024/01/30 12:15:15;;;;;;;2.20;1.80;;;;;;;;;;4996392;28;20200;-74
2024/01/30 12:17:41;;;;;;;3.53;1.80;;;;;;;;;;5008195;28;20225;-74
2024/01/30 12:20:06;;;;;;;3.10;2.23;;;;;;;;;;5007442;28;20178;-74
2024/01/30 12:22:33;;;;;;;1.97;1.87;;;;;;;;;;5001980;28;20197;-74
2024/01/30 12:24:58;;;;;;;3.73;1.90;;;;;;;;;;5005673;28;20187;-73
2024/01/30 12:27:23;;;;;;;3.57;2.00;;;;;;;;;;5000255;28;20183;-74
2024/01/30 12:29:55;;;;;;;11.90;2.93;;;;;;;;;;5009916;28;20171;-74
2024/01/30 12:32:22;;;;;;;2.40;1.93;;;;;;;;;;4993176;28;20276;-74
2024/01/30 12:34:47;;;;;;;2.23;2.00;;;;;;;;;;4999432;28;20184;-74
2024/01/30 12:37:13;;;;;;;2.27;1.87;;;;;;;;;;4991272;28;20180;-73
2024/01/30 12:39:38;;;;;;;4.87;2.23;;;;;;;;;;4996272;28;20205;-73
2024/01/30 12:42:04;;;;;;;16.00;3.20;;;;;;;;;;4994843;28;20181;-73
2024/01/30 12:44:29;;;;;;;3.60;2.00;;;;;;;;;;5008201;28;20183;-72
2024/01/30 12:46:54;;;;;;;3.27;2.00;;;;;;;;;;5010242;28;20206;-73
2024/01/30 12:49:19;;;;;;;4.40;2.07;;;;;;;;;;5009235;28;20190;-73
2024/01/30 12:51:45;;;;;;;4.70;2.20;;;;;;;;;;5006186;28;20208;-72
2024/01/30 12:54:12;;;;;;;2.20;2.00;;;;;;;;;;5009814;28;20263;-73
2024/01/30 12:56:37;;;;;;;6.90;3.13;;;;;;;;;;5010138;28;20192;-73
2024/01/30 12:59:02;;;;;;;2.20;2.00;;;;;;;;;;5004513;28;20196;-73
2024/01/30 13:01:28;;;;;;;4.53;2.20;;;;;;;;;;4992057;28;20234;-73
2024/01/30 13:03:53;;;;;;;3.70;2.40;;;;;;;;;;5006112;28;20173;-72
2024/01/30 13:06:18;;;;;;;4.30;2.07;;;;;;;;;;4991166;28;20202;-73
2024/01/30 13:08:43;;;;;;;2.80;2.20;;;;;;;;;;5004599;28;20173;-73
2024/01/30 13:11:09;;;;;;;5.73;2.30;;;;;;;;;;4992971;28;20193;-74
2024/01/30 13:13:35;;;;;;;3.97;2.17;;;;;;;;;;5011983;28;20180;-73
2024/01/30 13:16:00;;;;;;;2.73;2.30;;;;;;;;;;4993630;28;20312;-73
2024/01/30 13:18:26;;;;;;;2.67;2.00;;;;;;;;;;5013255;28;20249;-73
2024/01/30 13:20:51;;;;;;;2.57;2.17;;;;;;;;;;4996120;28;20205;-73
2024/01/30 13:23:16;;;;;;;1.97;1.87;;;;;;;;;;5007872;28;20182;-73
2024/01/30 13:28:08;;;;;;;4.17;2.60;;;;;;;;;;5029923;28;20222;-70
2024/01/30 13:30:33;;;;;;;4.27;2.50;;;;;;;;;;5032752;28;20205;-70
2024/01/30 13:32:59;;;;;;;2.53;2.33;;;;;;;;;;5033738;28;20172;-70
2024/01/30 13:35:24;;;;;;;2.77;2.37;;;;;;;;;;5017041;28;20184;-70
2024/01/30 13:37:49;;;;;;;3.27;2.70;;;;;;;;;;5031482;28;20177;-70
2024/01/30 13:40:16;;;;;;;3.77;2.67;;;;;;;;;;5015661;28;20196;-70
2024/01/30 13:42:41;;;;;;;8.77;3.50;;;;;;;;;;5033043;28;20173;-69
2024/01/30 13:45:09;;;;;;;3.13;2.80;;;;;;;;;;5017950;28;20176;-70
2024/01/30 13:47:34;;;;;;;5.23;2.57;;;;;;;;;;5032237;28;20178;-69
2024/01/30 13:49:59;;;;;;;6.30;2.97;;;;;;;;;;5015785;28;20198;-70
2024/01/30 13:52:25;;;;;;;2.87;2.57;;;;;;;;;;5023288;28;20232;-69
2024/01/30 13:54:50;;;;;;;3.50;2.30;;;;;;;;;;5020426;28;20228;-69
2024/01/30 13:57:15;;;;;;;2.80;2.60;;;;;;;;;;5033504;28;20290;-70
2024/01/30 13:59:40;;;;;;;3.43;2.80;;;;;;;;;;5017490;28;20177;-69
2024/01/30 14:02:08;;;;;;;6.90;2.60;;;;;;;;;;5016595;28;20182;-70
2024/01/30 14:04:33;;;;;;;5.13;3.00;;;;;;;;;;5021154;28;20294;-69
2024/01/30 14:06:58;;;;;;;12.17;3.67;;;;;;;;;;5032764;28;20208;-70
2024/01/30 14:09:23;;;;;;;8.97;3.37;;;;;;;;;;5031664;28;20292;-69
2024/01/30 14:11:49;;;;;;;3.07;2.83;;;;;;;;;;5032695;28;20223;-70
2024/01/30 14:14:14;;;;;;;4.00;2.60;;;;;;;;;;5016397;28;20200;-69
2024/01/30 14:16:39;;;;;;;2.53;2.23;;;;;;;;;;5018329;28;20174;-69
2024/01/30 14:19:04;;;;;;;2.60;2.40;;;;;;;;;;5034816;28;20240;-70
2024/01/30 14:21:30;;;;;;;2.70;2.43;;;;;;;;;;5020151;28;20191;-69
2024/01/30 14:23:55;;;;;;;3.57;2.80;;;;;;;;;;5033364;28;20269;-69
2024/01/30 14:26:21;;;;;;;8.07;2.80;;;;;;;;;;5021449;28;20230;-70
2024/01/30 14:28:46;;;;;;;2.30;2.10;;;;;;;;;;5013506;28;20196;-69
2024/01/30 14:31:11;;;;;;;3.83;2.53;;;;;;;;;;5017199;28;20201;-70
2024/01/30 14:33:36;;;;;;;2.93;2.40;;;;;;;;;;5032374;28;20201;-69
2024/01/30 14:36:02;;;;;;;3.33;2.30;;;;;;;;;;5033129;28;20172;-69